Latest Coastal Weather Observations for Gannett Cay

IDQ60701

Issued at 6:22 pm EST Friday 26 August 2016 (issued every 10 minutes, with the page automatically refreshed every 10 minutes)

About coastal observations | Map of coastal stations | Coastal observations for QLD | Marine services | Other Formats
Station Details ID: 200831 Name: GANNET CAY Lat: -21.98 Lon: 152.47 Height: 2.3 m
Data from the previous 72 hours. | See also: Recent months for locations in Queensland
Date/Time
EST
Temp
°C
Wind Pressure Rain since
9am
mm
Weather Cloud Vis
km
Sea
Height
m
Swell
Dir  Spd
kts
Gust
kts
hPa Trend Height
m
Period
s
Dir
26/06:00pm 19.4 S 18 23 1015.7 - - - - - - - - -
26/05:30pm 19.5 S 16 20 1015.3 - - - - - - - - -
26/05:29pm 19.7 S 16 - 1015.3 - - - - - - - - -
26/05:00pm 19.5 SSE 16 19 1014.9 - - - - - - - - -
26/04:30pm 19.4 SSE 16 19 1014.6 - - - - - - - - -
26/04:29pm 19.6 SSE 16 - 1014.7 - - - - - - - - -
26/04:00pm 19.5 SSE 15 17 1014.3 - - - - - - - - -
26/03:30pm 19.4 SSE 16 20 1013.4 - - - - - - - - -
26/03:29pm 19.5 SSE 16 - 1013.5 - - - - - - - - -
26/03:00pm 19.3 SE 16 20 1013.5 - - - - - - - - -
26/02:30pm 19.4 SE 17 20 1013.3 - - - - - - - - -
26/02:29pm 19.2 SE 17 - 1013.4 - - - - - - - - -
26/02:00pm 19.1 SE 16 19 1013.4 - - - - - - - - -
26/01:30pm 19.1 SE 19 22 1013.9 - - - - - - - - -
26/01:29pm 19.1 SE 19 - 1013.9 - - - - - - - - -
26/01:00pm 18.9 SE 20 23 1014.1 - - - - - - - - -
26/12:30pm 18.9 SE 20 22 1014.1 - - - - - - - - -
26/12:29pm 19.1 SE 19 - 1014.3 - - - - - - - - -
26/12:00pm 19.1 SE 18 21 1015.1 - - - - - - - - -
26/11:30am 19.0 SE 18 22 1015.0 - - - - - - - - -
26/11:29am 19.1 SE 18 - 1015.1 - - - - - - - - -
26/11:25am 19.1 SE 16 22 1015.0 - - - - - - - - -
26/11:00am 18.6 E 10 12 1015.6 - - - - - - - - -
26/10:30am 19.0 ENE 17 20 1016.0 - - - - - - - - -
26/10:29am 19.0 ENE 17 - 1016.1 - - - - - - - - -
26/10:00am 18.8 E 10 14 1016.0 - - - - - - - - -
26/09:30am 18.8 E 10 13 1016.1 - - - - - - - - -
26/09:29am 18.7 E 10 - 1016.2 - - - - - - - - -
26/09:00am 18.6 E 8 10 1016.4 - - - - - - - - -
26/08:30am 19.0 E 8 11 1016.3 - - - - - - - - -
26/08:29am 19.0 E 9 - 1016.4 - - - - - - - - -
26/08:00am 19.1 E 11 13 1015.7 - - - - - - - - -
26/07:30am 19.1 E 11 13 1015.6 - - - - - - - - -
26/07:29am 19.1 E 11 - 1015.6 - - - - - - - - -
26/07:00am 19.0 E 10 12 1015.2 - - - - - - - - -
26/06:30am 18.9 E 11 13 1014.6 - - - - - - - - -
26/06:29am 18.8 E 11 - 1014.7 - - - - - - - - -
26/06:00am 18.6 E 10 12 1015.2 - - - - - - - - -
26/05:30am 18.7 ENE 11 13 1014.9 - - - - - - - - -
26/05:29am 18.8 ENE 11 - 1014.9 - - - - - - - - -
26/05:00am 19.1 NE 8 11 1014.0 - - - - - - - - -
26/04:30am 18.9 ENE 5 7 1013.3 - - - - - - - - -
26/04:29am 19.0 NE 5 - 1013.5 - - - - - - - - -
26/04:00am 19.0 NNE 5 6 1013.8 - - - - - - - - -
26/03:30am 19.3 NE 2 4 1013.6 - - - - - - - - -
26/03:29am 19.3 NE 2 - 1013.7 - - - - - - - - -
26/03:00am 19.3 ENE 5 6 1013.3 - - - - - - - - -
26/02:30am 19.5 NE 4 6 1013.4 - - - - - - - - -
26/02:29am 19.4 NE 4 - 1013.6 - - - - - - - - -
26/02:00am 19.5 NNE 4 5 1013.9 - - - - - - - - -
26/01:30am 19.6 NNE 5 7 1014.0 - - - - - - - - -
26/01:29am 19.5 NNE 5 - 1014.2 - - - - - - - - -
26/01:00am 19.7 N 6 8 1014.3 - - - - - - - - -
26/12:30am 19.5 N 7 8 1014.4 - - - - - - - - -
26/12:29am 19.5 N 7 - 1014.6 - - - - - - - - -
26/12:00am 19.3 N 6 7 1014.8 - - - - - - - - -
 
Date/Time
EST
Temp
°C
Wind Pressure Rain since
9am
mm
Weather Cloud Vis
km
Sea
Height
m
Swell
Dir  Spd
kts
Gust
kts
hPa Trend Height
m
Period
s
Dir
25/11:30pm 19.4 NNE 8 9 1014.8 - - - - - - - - -
25/11:29pm 19.4 NNE 8 - 1014.9 - - - - - - - - -
25/11:00pm 19.7 NNE 8 10 1014.9 - - - - - - - - -
25/10:30pm 19.7 NNE 7 9 1015.0 - - - - - - - - -
25/10:29pm 19.8 NNE 7 - 1015.1 - - - - - - - - -
25/10:00pm 19.6 NE 6 7 1015.0 - - - - - - - - -
25/09:30pm 19.3 ENE 6 7 1014.9 - - - - - - - - -
25/09:29pm 19.3 ENE 6 - 1014.9 - - - - - - - - -
25/09:00pm 19.6 NE 7 8 1015.2 - - - - - - - - -
25/08:30pm 19.6 NE 8 10 1014.9 - - - - - - - - -
25/08:29pm 19.4 NE 8 - 1015.1 - - - - - - - - -
25/08:00pm 19.7 ENE 8 9 1014.8 - - - - - - - - -
25/07:30pm 19.8 E 8 10 1014.8 - - - - - - - - -
25/07:29pm 19.6 E 8 - 1014.8 - - - - - - - - -
25/07:00pm 19.6 E 8 9 1014.4 - - - - - - - - -
25/06:30pm 19.7 ESE 7 8 1014.2 - - - - - - - - -
25/06:29pm 19.6 ESE 7 - 1014.4 - - - - - - - - -
25/06:00pm 20.3 SSE 8 9 1013.7 - - - - - - - - -
25/05:30pm 20.2 SSE 7 9 1013.3 - - - - - - - - -
25/05:29pm 20.2 SSE 7 - 1013.5 - - - - - - - - -
25/05:00pm 20.2 SE 7 9 1013.2 - - - - - - - - -
25/04:30pm 19.8 SSE 10 11 1012.5 - - - - - - - - -
25/04:29pm 19.9 SSE 10 - 1012.5 - - - - - - - - -
25/04:00pm 19.6 S 10 12 1012.2 - - - - - - - - -
25/03:30pm 19.3 SSE 7 9 1011.8 - - - - - - - - -
25/03:29pm 19.4 SSE 7 - 1011.9 - - - - - - - - -
25/03:00pm 19.3 S 8 9 1011.7 - - - - - - - - -
25/02:30pm 19.3 S 9 12 1012.1 - - - - - - - - -
25/02:29pm 19.4 S 9 - 1012.1 - - - - - - - - -
25/02:00pm 19.3 SSE 7 10 1011.6 - - - - - - - - -
25/01:30pm 19.1 SE 8 10 1011.6 - - - - - - - - -
25/01:29pm 19.0 SE 8 - 1011.6 - - - - - - - - -
25/01:00pm 18.7 SSE 7 8 1011.6 - - - - - - - - -
25/12:30pm 18.3 S 7 10 1012.1 - - - - - - - - -
25/12:29pm 18.5 S 7 - 1012.2 - - - - - - - - -
25/12:00pm 18.6 SSW 9 12 1012.4 - - - - - - - - -
25/11:30am 19.0 SSW 10 13 1013.1 - - - - - - - - -
25/11:29am 19.0 SSW 9 - 1013.2 - - - - - - - - -
25/11:00am 19.5 SSW 11 14 1012.8 - - - - - - - - -
25/10:30am 19.8 SW 11 13 1013.5 - - - - - - - - -
25/10:29am 19.9 SW 11 - 1013.7 - - - - - - - - -
25/10:00am 20.3 WSW 9 11 1013.7 - - - - - - - - -
25/09:30am 20.4 SW 12 15 1013.6 - - - - - - - - -
25/09:29am 20.4 SW 12 - 1013.7 - - - - - - - - -
25/09:00am 20.5 SSW 10 13 1014.0 - - - - - - - - -
25/08:30am 20.2 SW 11 13 1014.1 - - - - - - - - -
25/08:29am 20.2 SW 11 - 1014.2 - - - - - - - - -
25/08:00am 20.4 SSW 11 13 1013.8 - - - - - - - - -
25/07:30am 20.4 S 11 13 1013.3 - - - - - - - - -
25/07:29am 20.5 S 11 - 1013.4 - - - - - - - - -
25/07:00am 20.8 SSW 14 16 1013.2 - - - - - - - - -
25/06:30am 21.1 S 15 19 1012.7 - - - - - - - - -
25/06:29am 21.2 S 15 - 1012.8 - - - - - - - - -
25/06:00am 21.0 S 10 13 1012.7 - - - - - - - - -
25/05:30am 20.6 S 9 11 1012.0 - - - - - - - - -
25/05:29am 20.5 S 9 - 1012.1 - - - - - - - - -
25/05:00am 20.8 SSW 10 13 1012.0 - - - - - - - - -
25/04:30am 20.4 SSW 14 16 1011.5 - - - - - - - - -
25/04:29am 20.4 SSW 14 - 1011.5 - - - - - - - - -
25/04:00am 20.2 SSW 13 16 1011.1 - - - - - - - - -
25/03:30am 20.5 SW 16 17 1011.5 - - - - - - - - -
25/03:29am 20.3 SW 16 - 1011.7 - - - - - - - - -
25/03:00am 20.7 SSW 22 25 1011.4 - - - - - - - - -
25/02:30am 21.0 SSW 20 23 1011.3 - - - - - - - - -
25/02:29am 21.3 SSW 20 - 1011.4 - - - - - - - - -
25/02:00am 21.4 S 18 21 1011.2 - - - - - - - - -
25/01:30am 21.5 SSW 19 22 1011.5 - - - - - - - - -
25/01:29am 21.4 SSW 19 - 1011.6 - - - - - - - - -
25/01:24am 21.5 SSW 18 22 1011.5 - - - - - - - - -
25/01:00am 21.5 S 10 11 1012.1 - - - - - - - - -
25/12:30am 21.5 SSE 5 7 1012.2 - - - - - - - - -
25/12:29am 21.4 SSE 6 - 1012.2 - - - - - - - - -
25/12:00am 22.1 S 9 13 1012.2 - - - - - - - - -
 
Date/Time
EST
Temp
°C
Wind Pressure Rain since
9am
mm
Weather Cloud Vis
km
Sea
Height
m
Swell
Dir  Spd
kts
Gust
kts
hPa Trend Height
m
Period
s
Dir
24/11:30pm 21.6 SSE 7 8 1012.0 - - - - - - - - -
24/11:29pm 21.6 SSE 7 - 1012.1 - - - - - - - - -
24/11:00pm 21.5 SSE 9 11 1011.8 - - - - - - - - -
24/10:30pm 21.2 S 10 11 1011.7 - - - - - - - - -
24/10:29pm 21.2 SSE 10 - 1011.8 - - - - - - - - -
24/10:00pm 21.0 SSE 12 14 1011.7 - - - - - - - - -
24/09:30pm 20.9 S 15 17 1011.7 - - - - - - - - -
24/09:29pm 20.8 S 15 - 1011.8 - - - - - - - - -
24/09:00pm 20.3 S 21 25 1011.8 - - - - - - - - -
24/08:30pm 21.3 SSW 16 20 1011.6 - - - - - - - - -
24/08:29pm 21.2 SSW 16 - 1011.6 - - - - - - - - -
24/08:00pm 23.7 NNW 12 15 1010.9 - - - - - - - - -
24/07:30pm 23.8 N 17 19 1010.3 - - - - - - - - -
24/07:29pm 23.8 NNW 18 - 1010.4 - - - - - - - - -
24/07:00pm 23.7 NNW 19 21 1010.1 - - - - - - - - -
24/06:30pm 23.7 NNW 15 17 1010.2 - - - - - - - - -
24/06:29pm 23.7 NNW 15 - 1010.3 - - - - - - - - -
24/06:00pm 23.9 NNW 19 21 1009.6 - - - - - - - - -
24/05:30pm 23.7 NNW 16 18 1009.3 - - - - - - - - -
24/05:29pm 23.7 NNW 16 - 1009.5 - - - - - - - - -
24/05:00pm 23.8 NNW 17 19 1009.1 - - - - - - - - -
24/04:30pm 23.9 NNW 19 23 1008.9 - - - - - - - - -
24/04:29pm 23.9 NNW 19 - 1009.1 - - - - - - - - -
24/04:00pm 23.8 NNW 17 20 1008.7 - - - - - - - - -
24/03:30pm 23.8 NNW 17 20 1008.7 - - - - - - - - -
24/03:29pm 23.7 NNW 17 - 1008.9 - - - - - - - - -
24/03:00pm 23.8 NNW 16 19 1008.7 - - - - - - - - -
24/02:30pm 23.7 NNW 17 19 1008.7 - - - - - - - - -
24/02:29pm 23.7 NNW 17 - 1008.9 - - - - - - - - -
24/02:00pm 23.8 NNW 18 22 1008.7 - - - - - - - - -
24/01:30pm 23.7 N 16 19 1009.0 - - - - - - - - -
24/01:29pm 23.7 N 16 - 1009.2 - - - - - - - - -
24/01:00pm 23.7 N 18 20 1009.3 - - - - - - - - -
24/12:30pm 23.8 N 19 22 1009.8 - - - - - - - - -
24/12:29pm 23.8 N 19 - 1009.9 - - - - - - - - -
24/12:00pm 23.8 N 18 24 1010.2 - - - - - - - - -
24/11:30am 23.7 N 16 18 1010.7 - - - - - - - - -
24/11:29am 23.6 N 16 - 1010.9 - - - - - - - - -
24/11:00am 23.7 N 15 17 1011.4 - - - - - - - - -
24/10:30am 23.6 N 17 19 1011.6 - - - - - - - - -
24/10:29am 23.6 N 17 - 1011.7 - - - - - - - - -
24/10:00am 23.6 NNW 18 21 1011.9 - - - - - - - - -
24/09:30am 23.4 N 15 17 1011.9 - - - - - - - - -
24/09:29am 23.4 N 15 - 1012.0 - - - - - - - - -
24/09:00am 23.3 N 16 19 1011.8 - - - - - - - - -
24/08:30am 23.3 N 15 21 1011.6 - - - - - - - - -
24/08:29am 23.3 N 15 - 1011.8 - - - - - - - - -
24/08:00am 23.4 N 17 19 1011.4 - - - - - - - - -
24/07:30am 23.5 N 17 19 1011.1 - - - - - - - - -
24/07:29am 23.5 N 17 - 1011.2 - - - - - - - - -
24/07:00am 23.4 N 16 19 1010.8 - - - - - - - - -
24/06:30am 23.2 N 16 19 1010.3 - - - - - - - - -
24/06:29am 23.1 N 16 - 1010.4 - - - - - - - - -
24/06:00am 23.2 N 14 17 1010.1 - - - - - - - - -
24/05:30am 23.1 N 13 16 1009.7 - - - - - - - - -
24/05:29am 23.1 N 13 - 1009.8 - - - - - - - - -
24/05:00am 23.2 N 15 17 1009.3 - - - - - - - - -
24/04:30am 23.1 N 13 16 1009.3 - - - - - - - - -
24/04:29am 23.1 N 13 - 1009.4 - - - - - - - - -
24/04:00am 23.0 N 14 16 1009.3 - - - - - - - - -
24/03:30am 22.9 NNE 14 16 1009.3 - - - - - - - - -
24/03:29am 23.0 NNE 14 - 1009.5 - - - - - - - - -
24/03:00am 23.1 N 15 17 1009.3 - - - - - - - - -
24/02:30am 23.1 N 15 17 1009.9 - - - - - - - - -
24/02:29am 23.1 N 15 - 1010.0 - - - - - - - - -
24/02:00am 23.1 N 16 18 1010.2 - - - - - - - - -
24/01:30am 23.1 N 15 19 1010.4 - - - - - - - - -
24/01:29am 23.2 N 15 - 1010.5 - - - - - - - - -
24/01:00am 23.2 N 13 16 1010.8 - - - - - - - - -
24/12:30am 23.1 N 14 17 1011.2 - - - - - - - - -
24/12:29am 23.2 N 14 - 1011.3 - - - - - - - - -
24/12:00am 23.1 N 14 16 1011.4 - - - - - - - - -
 
Date/Time
EST
Temp
°C
Wind Pressure Rain since
9am
mm
Weather Cloud Vis
km
Sea
Height
m
Swell
Dir  Spd
kts
Gust
kts
hPa Trend Height
m
Period
s
Dir
23/11:30pm 23.2 N 14 17 1011.8 - - - - - - - - -
23/11:29pm 23.2 N 14 - 1011.9 - - - - - - - - -
23/11:00pm 23.2 N 14 16 1012.0 - - - - - - - - -
23/10:30pm 23.2 N 15 17 1012.1 - - - - - - - - -
23/10:29pm 23.2 N 15 - 1012.3 - - - - - - - - -
23/10:00pm 23.2 N 15 17 1012.3 - - - - - - - - -
23/09:30pm 23.1 N 13 15 1012.6 - - - - - - - - -
23/09:29pm 23.1 N 13 - 1012.7 - - - - - - - - -
23/09:00pm 23.0 N 12 13 1012.7 - - - - - - - - -
23/08:30pm 23.0 NNE 13 15 1012.5 - - - - - - - - -
23/08:29pm 23.0 NNE 13 - 1012.6 - - - - - - - - -
23/08:00pm 23.0 N 12 14 1012.5 - - - - - - - - -
23/07:30pm 22.9 N 12 14 1012.6 - - - - - - - - -
23/07:29pm 22.9 N 12 - 1012.7 - - - - - - - - -
23/07:00pm 22.7 NNE 13 15 1012.5 - - - - - - - - -
23/06:30pm 22.7 N 15 17 1011.9 - - - - - - - - -
23/06:29pm 22.8 N 15 - 1012.0 - - - - - - - - -

Other Formats:

Comma delimited format used in spreadsheet applications
http://www.bom.gov.au/fwo/IDQ60701/IDQ60701.94379.axf

JavaScript Object Notation format (JSON) in row-major order
http://www.bom.gov.au/fwo/IDQ60701/IDQ60701.94379.json